Time;durP1;ratioP1;P1;durP2;ratioP2;P2;SDS_P1;SDS_P2;PMS_P1;PMS_P2;Temp;Humidity;BMP_temperature;BMP_pressure;BME280_temperature;BME280_humidity;BME280_pressure;Samples;Min_cycle;Max_cycle;Signal;HPM_P1;HPM_P2
2023/01/06 00:00:06;;;;;;;22.10;16.85;;;;;;;18.18;60.79;100230.66;5073363;28;20430;-72
2023/01/06 00:02:32;;;;;;;23.63;17.00;;;;;;;18.18;61.17;100230.66;5073551;28;20021;-72
2023/01/06 00:04:57;;;;;;;26.27;16.92;;;;;;;18.19;60.77;100221.81;5073640;28;20497;-71
2023/01/06 00:07:23;;;;;;;21.73;17.30;;;;;;;18.17;60.92;100222.78;5073167;28;20103;-71
2023/01/06 00:09:48;;;;;;;22.20;16.60;;;;;;;18.16;61.02;100219.25;5073351;28;20036;-71
2023/01/06 00:12:14;;;;;;;23.48;16.85;;;;;;;18.17;60.93;100213.06;5073461;28;20028;-72
2023/01/06 00:14:41;;;;;;;23.35;16.02;;;;;;;18.18;60.86;100219.22;5072127;28;20036;-72
2023/01/06 00:17:07;;;;;;;22.02;16.30;;;;;;;18.16;60.77;100226.34;5071978;28;20119;-72
2023/01/06 00:19:33;;;;;;;22.88;16.38;;;;;;;18.18;60.89;100220.09;5073299;28;20108;-72
2023/01/06 00:21:58;;;;;;;21.67;16.05;;;;;;;18.18;61.04;100222.72;5073233;28;20044;-72
2023/01/06 00:24:23;;;;;;;21.15;15.90;;;;;;;18.19;61.00;100220.94;5073033;28;20033;-72
2023/01/06 00:26:49;;;;;;;20.67;16.10;;;;;;;18.18;60.89;100222.72;5073091;28;20020;-72
2023/01/06 00:29:14;;;;;;;20.83;16.05;;;;;;;18.17;61.03;100223.66;5072630;28;20454;-72
2023/01/06 00:31:39;;;;;;;18.55;15.52;;;;;;;18.20;61.27;100222.63;5073016;28;20028;-73
2023/01/06 00:34:05;;;;;;;20.25;15.73;;;;;;;18.18;61.01;100221.84;5072718;28;20024;-71
2023/01/06 00:36:30;;;;;;;21.10;14.38;;;;;;;18.18;60.77;100216.56;5072949;28;20534;-71
2023/01/06 00:38:56;;;;;;;20.83;15.77;;;;;;;18.17;60.63;100228.06;5072875;28;20048;-71
2023/01/06 00:44:06;;;;;;;20.40;14.77;;;;;;;18.19;60.78;100221.81;5072634;28;20067;-72
2023/01/06 00:46:33;;;;;;;19.95;14.85;;;;;;;18.19;60.84;100213.88;5072712;28;20440;-72
2023/01/06 00:49:00;;;;;;;19.48;14.38;;;;;;;18.17;60.77;100206.91;5072881;28;20021;-72
2023/01/06 00:51:26;;;;;;;19.45;14.35;;;;;;;18.18;60.81;100212.16;5072230;28;20024;-72
2023/01/06 00:53:52;;;;;;;19.55;14.50;;;;;;;18.16;61.11;100206.03;5072672;28;20497;-72
2023/01/06 00:56:18;;;;;;;22.30;14.70;;;;;;;18.18;60.84;100208.63;5072700;28;20024;-72
2023/01/06 00:58:43;;;;;;;17.85;13.35;;;;;;;18.18;60.86;100198.06;5072233;28;20032;-71
2023/01/06 01:01:09;;;;;;;18.77;14.85;;;;;;;18.19;60.78;100200.66;5071171;28;20021;-72
2023/01/06 01:03:36;;;;;;;18.63;13.50;;;;;;;18.20;60.88;100199.75;5071195;28;20401;-72
2023/01/06 01:06:04;;;;;;;17.50;13.57;;;;;;;18.18;61.05;100209.50;5072360;28;20482;-71
2023/01/06 01:08:30;;;;;;;18.10;14.25;;;;;;;18.19;60.72;100205.94;5072269;28;20052;-71
2023/01/06 01:11:02;;;;;;;19.65;13.88;;;;;;;18.18;60.76;100201.59;5072298;28;20124;-72
2023/01/06 01:13:27;;;;;;;19.75;13.80;;;;;;;18.18;60.84;100198.94;5072129;28;20448;-71
2023/01/06 01:15:53;;;;;;;18.83;14.02;;;;;;;18.18;60.89;100208.63;5071112;28;20024;-72
2023/01/06 01:18:18;;;;;;;19.83;14.38;;;;;;;18.16;60.84;100206.03;5072294;28;20048;-72
2023/01/06 01:20:46;;;;;;;20.48;14.00;;;;;;;18.17;61.05;100199.88;5072286;28;20090;-72
2023/01/06 01:23:12;;;;;;;17.85;13.18;;;;;;;18.17;60.79;100202.50;5071879;28;20498;-71
2023/01/06 01:25:39;;;;;;;20.38;14.07;;;;;;;18.17;60.71;100199.88;5072261;28;20033;-71
2023/01/06 01:28:05;;;;;;;16.80;12.88;;;;;;;18.17;61.03;100207.78;5071788;28;20024;-71
2023/01/06 01:30:31;;;;;;;17.63;12.77;;;;;;;18.20;60.80;100201.50;5071655;28;20540;-71
2023/01/06 01:32:56;;;;;;;17.00;13.15;;;;;;;18.21;60.78;100205.91;5072146;28;20036;-71
2023/01/06 01:35:22;;;;;;;18.65;13.05;;;;;;;18.18;61.12;100201.59;5072055;28;20024;-72
2023/01/06 01:37:47;;;;;;;15.77;12.18;;;;;;;18.19;61.13;100197.16;5070831;28;20066;-72
2023/01/06 01:40:13;;;;;;;14.30;11.55;;;;;;;18.17;61.05;100197.22;5072208;28;20033;-72
2023/01/06 01:42:38;;;;;;;17.40;12.82;;;;;;;18.15;60.92;100199.06;5071547;28;20510;-72
2023/01/06 01:45:06;;;;;;;15.68;12.02;;;;;;;18.18;60.89;100204.22;5072325;28;20024;-71
2023/01/06 01:47:46;;;;;;;15.45;12.05;;;;;;;18.16;60.71;100203.41;5075709;28;20033;-72
2023/01/06 01:50:37;;;;;;;18.58;13.40;;;;;;;18.15;60.73;100206.97;5074882;28;20025;-72
2023/01/06 01:53:08;;;;;;;16.50;11.85;;;;;;;18.15;60.83;100209.63;5073824;28;20120;-71
2023/01/06 01:55:36;;;;;;;16.65;11.82;;;;;;;18.15;61.05;100206.97;5076035;28;20056;-71
2023/01/06 01:58:08;;;;;;;15.95;11.82;;;;;;;18.15;60.85;100209.63;5075629;28;20096;-71
2023/01/06 02:00:35;;;;;;;18.65;12.07;;;;;;;18.17;60.54;100206.91;5075902;28;20028;-72
2023/01/06 02:03:02;;;;;;;15.93;11.88;;;;;;;18.16;60.84;100211.31;5075546;28;20063;-72
2023/01/06 02:05:29;;;;;;;15.77;11.57;;;;;;;18.16;61.08;100211.31;5075764;28;20076;-72
2023/01/06 02:07:57;;;;;;;16.65;12.35;;;;;;;18.16;60.78;100210.50;5075618;28;20513;-71
2023/01/06 02:10:24;;;;;;;17.00;12.27;;;;;;;18.18;61.01;100208.63;5075408;28;20025;-71
2023/01/06 02:12:55;;;;;;;14.90;11.20;;;;;;;18.16;60.92;100216.63;5075654;28;20020;-72
2023/01/06 02:15:27;;;;;;;16.85;11.68;;;;;;;18.17;60.90;100223.66;5075728;28;20106;-71
2023/01/06 02:18:11;;;;;;;15.88;11.05;;;;;;;18.17;60.76;100222.78;5075713;28;20032;-71
2023/01/06 02:20:59;;;;;;;15.93;11.32;;;;;;;18.16;60.99;100216.63;5075478;28;20058;-71
2023/01/06 02:23:43;;;;;;;14.85;11.35;;;;;;;18.16;60.92;100221.91;5055596;28;20029;-71
2023/01/06 02:26:32;;;;;;;15.60;11.52;;;;;;;18.15;60.63;100221.97;5055061;28;20060;-71
2023/01/06 02:29:25;;;;;;;15.60;11.30;;;;;;;18.16;60.85;100224.53;5055464;28;20055;-72
2023/01/06 02:32:01;;;;;;;14.13;10.95;;;;;;;18.17;60.56;100228.94;5064471;28;20101;-71
2023/01/06 02:34:40;;;;;;;15.93;11.32;;;;;;;18.18;60.91;100225.38;5075351;28;20107;-72
2023/01/06 02:37:08;;;;;;;13.13;9.98;;;;;;;18.16;60.56;100227.19;5075209;28;20037;-73
2023/01/06 02:39:41;;;;;;;16.50;10.75;;;;;;;18.15;60.72;100228.09;5075055;28;20056;-72
2023/01/06 02:42:15;;;;;;;14.38;10.88;;;;;;;18.11;60.90;100231.75;5075207;28;20036;-72
2023/01/06 02:45:05;;;;;;;14.27;10.40;;;;;;;18.13;61.00;100232.59;5074920;28;20474;-72
2023/01/06 02:47:49;;;;;;;12.95;10.23;;;;;;;18.16;60.74;100237.75;5075077;28;20489;-72
2023/01/06 02:51:05;;;;;;;14.65;10.35;;;;;;;18.14;60.54;100234.31;5075248;28;20169;-71
2023/01/06 02:53:54;;;;;;;14.85;10.10;;;;;;;18.16;60.69;100232.47;4993574;28;20066;-72
2023/01/06 02:56:25;;;;;;;13.63;10.25;;;;;;;18.14;60.57;100226.38;4993335;28;20511;-72
2023/01/06 02:59:03;;;;;;;13.82;9.93;;;;;;;18.15;60.72;100225.47;4993372;28;20041;-72
2023/01/06 03:01:39;;;;;;;12.82;10.45;;;;;;;18.12;60.84;100228.22;4993290;28;20026;-72
2023/01/06 03:04:09;;;;;;;12.38;9.88;;;;;;;18.15;60.49;100225.47;4993172;28;20034;-71
2023/01/06 03:06:43;;;;;;;13.65;9.77;;;;;;;18.13;60.61;100222.03;4993305;28;20038;-72
2023/01/06 03:09:13;;;;;;;13.68;10.00;;;;;;;18.11;60.74;100223.84;4992581;28;20046;-72
2023/01/06 03:11:41;;;;;;;12.73;9.60;;;;;;;18.12;60.70;100225.59;4993268;28;20461;-73
2023/01/06 03:14:28;;;;;;;14.50;9.68;;;;;;;18.15;60.84;100221.97;4993094;28;20029;-72
2023/01/06 03:16:54;;;;;;;13.70;9.73;;;;;;;18.12;60.86;100225.59;4993086;28;20602;-71
2023/01/06 03:19:20;;;;;;;13.77;9.45;;;;;;;18.13;60.79;100222.03;4992934;28;20023;-71
2023/01/06 03:21:48;;;;;;;13.50;9.68;;;;;;;18.15;60.32;100219.34;4993094;28;20030;-72
2023/01/06 03:24:14;;;;;;;13.40;9.73;;;;;;;18.14;60.52;100223.75;4992594;28;20034;-72
2023/01/06 03:26:43;;;;;;;15.63;9.52;;;;;;;18.15;60.82;100219.34;4992897;28;20041;-72
2023/01/06 03:29:12;;;;;;;14.13;9.93;;;;;;;18.14;60.84;100213.19;5020775;28;20043;-72
2023/01/06 03:32:05;;;;;;;13.40;9.70;;;;;;;18.15;60.80;100214.91;5073772;28;20031;-71
2023/01/06 03:34:34;;;;;;;12.85;9.50;;;;;;;18.13;60.79;100206.19;5054233;28;20033;-71
2023/01/06 03:37:25;;;;;;;12.55;9.00;;;;;;;18.16;60.43;100210.50;5072122;28;20043;-72
2023/01/06 03:40:09;;;;;;;12.73;8.68;;;;;;;18.16;60.77;100205.22;5074059;28;20025;-72
2023/01/06 03:45:26;;;;;;;12.40;8.95;;;;;;;18.13;60.65;100206.19;5074024;28;20910;-71
2023/01/06 03:48:06;;;;;;;12.80;9.55;;;;;;;18.13;60.54;100200.91;5074050;28;20044;-72
2023/01/06 03:50:39;;;;;;;12.32;9.10;;;;;;;18.15;60.56;100199.06;5074222;28;20048;-72
2023/01/06 03:53:16;;;;;;;13.65;8.88;;;;;;;18.14;60.64;100201.75;5073650;28;20074;-72
2023/01/06 03:55:47;;;;;;;12.95;8.88;;;;;;;18.14;60.17;100199.97;5073762;28;20036;-72
2023/01/06 03:58:15;;;;;;;11.63;9.07;;;;;;;18.15;60.50;100190.28;5073867;28;20066;-72
2023/01/06 04:00:41;;;;;;;12.40;9.20;;;;;;;18.13;60.43;100185.03;5073738;28;20028;-72
2023/01/06 04:03:16;;;;;;;10.93;8.35;;;;;;;18.14;60.47;100192.03;5073492;28;20016;-72
2023/01/06 04:05:41;;;;;;;11.80;8.23;;;;;;;18.15;60.42;100204.34;5073569;28;20039;-71
2023/01/06 04:08:06;;;;;;;10.82;7.97;;;;;;;18.15;60.42;100193.75;5072794;28;20070;-72
2023/01/06 04:10:32;;;;;;;11.52;8.73;;;;;;;18.16;60.27;100190.19;5073026;28;20079;-72
2023/01/06 04:12:57;;;;;;;11.50;8.52;;;;;;;18.16;60.46;100194.63;5073554;28;20024;-72
2023/01/06 04:15:25;;;;;;;11.32;8.30;;;;;;;18.16;60.27;100195.47;5073302;28;20029;-71
2023/01/06 04:17:51;;;;;;;10.90;7.75;;;;;;;18.16;60.50;100195.47;5073349;28;20399;-72
2023/01/06 04:20:23;;;;;;;11.82;8.90;;;;;;;18.16;60.17;100194.63;5073327;28;20024;-72
2023/01/06 04:22:48;;;;;;;11.50;8.13;;;;;;;18.13;60.32;100203.53;5072672;28;20028;-72
2023/01/06 04:25:14;;;;;;;11.05;8.20;;;;;;;18.15;60.25;100203.50;5073093;28;20085;-71
2023/01/06 04:27:39;;;;;;;11.15;8.02;;;;;;;18.15;60.33;100206.97;5073157;28;20024;-72
2023/01/06 04:30:06;;;;;;;9.95;7.93;;;;;;;18.16;60.50;100205.22;5073119;28;20029;-72
2023/01/06 04:32:31;;;;;;;10.88;7.90;;;;;;;18.16;60.33;100203.41;5072880;28;20496;-72
2023/01/06 04:34:57;;;;;;;10.60;8.25;;;;;;;18.14;60.54;100207.91;5072921;28;20028;-71
2023/01/06 04:37:22;;;;;;;10.10;7.85;;;;;;;18.14;60.21;100205.25;5071222;28;20028;-71
2023/01/06 04:39:48;;;;;;;10.57;7.72;;;;;;;18.12;60.35;100207.09;5072935;28;20027;-72
2023/01/06 04:42:14;;;;;;;11.00;8.75;;;;;;;18.15;60.19;100206.13;5072815;28;20031;-71
2023/01/06 04:44:41;;;;;;;10.25;7.80;;;;;;;18.14;60.43;100202.63;5072663;28;20031;-72
2023/01/06 04:47:08;;;;;;;9.98;7.80;;;;;;;18.15;60.22;100209.63;5072865;28;20504;-72
2023/01/06 04:49:33;;;;;;;12.32;7.57;;;;;;;18.15;60.08;100203.50;5072773;28;20040;-72
2023/01/06 04:51:59;;;;;;;11.02;8.13;;;;;;;18.12;60.37;100204.47;5072333;28;20021;-72
2023/01/06 04:54:24;;;;;;;10.57;7.90;;;;;;;18.14;60.45;100207.03;5072643;28;20500;-73
2023/01/06 04:56:49;;;;;;;11.80;8.07;;;;;;;18.14;60.35;100202.63;5072701;28;20032;-72
2023/01/06 04:59:15;;;;;;;10.48;7.32;;;;;;;18.11;59.99;100193.03;5072628;28;20012;-71
2023/01/06 05:01:40;;;;;;;12.20;8.13;;;;;;;18.12;60.37;100199.19;5072553;28;20032;-72
2023/01/06 05:04:06;;;;;;;11.35;7.93;;;;;;;18.13;60.41;100192.97;5072539;28;20017;-72
2023/01/06 05:06:32;;;;;;;9.82;7.28;;;;;;;18.13;60.30;100192.97;5072213;28;20032;-72
2023/01/06 05:08:58;;;;;;;8.68;7.03;;;;;;;18.13;60.27;100200.91;5072455;28;20091;-70
2023/01/06 05:11:25;;;;;;;10.82;7.60;;;;;;;18.13;59.98;100200.91;5071124;28;20032;-72
2023/01/06 05:13:51;;;;;;;9.90;7.10;;;;;;;18.13;60.08;100206.19;5072338;28;20016;-71
2023/01/06 05:16:19;;;;;;;10.02;7.28;;;;;;;18.12;60.21;100188.63;5072352;28;20578;-72
2023/01/06 05:18:45;;;;;;;10.68;6.88;;;;;;;18.12;60.31;100193.91;5070732;28;20028;-72
2023/01/06 05:21:11;;;;;;;10.27;6.95;;;;;;;18.13;60.38;100192.97;5072166;28;20032;-72
2023/01/06 05:23:37;;;;;;;11.68;7.72;;;;;;;18.12;59.97;100199.19;5071935;28;20069;-72
2023/01/06 05:26:03;;;;;;;9.77;6.82;;;;;;;18.12;59.93;100199.19;5072149;28;20043;-72
2023/01/06 05:28:29;;;;;;;10.38;7.32;;;;;;;18.13;59.82;100195.63;5071704;28;20409;-71
2023/01/06 05:30:59;;;;;;;9.70;6.90;;;;;;;18.13;60.18;100192.97;5072382;28;20089;-72
2023/01/06 05:33:25;;;;;;;9.73;6.80;;;;;;;18.13;60.30;100192.97;5071819;28;20401;-72
2023/01/06 05:35:57;;;;;;;9.27;6.75;;;;;;;18.16;60.76;100190.19;5072135;28;20052;-71
2023/01/06 05:38:22;;;;;;;9.35;6.50;;;;;;;18.21;61.84;100197.97;5072203;28;20505;-72
2023/01/06 05:40:51;;;;;;;11.95;7.40;;;;;;;18.25;62.42;100195.16;5072287;28;20064;-71
2023/01/06 05:43:17;;;;;;;12.07;6.82;;;;;;;18.27;62.82;100194.22;5072032;28;20024;-72
2023/01/06 05:45:42;;;;;;;10.98;6.57;;;;;;;18.30;62.71;100202.03;5071972;28;20024;-71
2023/01/06 05:48:08;;;;;;;11.10;6.30;;;;;;;18.30;62.40;100197.59;5071817;28;20060;-71
2023/01/06 05:50:33;;;;;;;10.55;7.00;;;;;;;18.33;62.53;100201.91;5072114;28;20074;-71
2023/01/06 05:52:58;;;;;;;9.18;6.22;;;;;;;18.32;62.72;100195.78;5072243;28;20163;-71
2023/01/06 05:55:24;;;;;;;10.23;6.53;;;;;;;18.34;62.52;100198.34;5072107;28;20498;-71
2023/01/06 05:57:49;;;;;;;9.77;6.13;;;;;;;18.35;62.50;100195.66;5072231;28;20036;-72
2023/01/06 06:00:15;;;;;;;7.70;5.63;;;;;;;18.36;62.74;100199.16;5072319;28;20054;-71
2023/01/06 06:02:40;;;;;;;9.40;6.10;;;;;;;18.38;62.80;100199.97;5071384;28;20482;-71
2023/01/06 06:05:06;;;;;;;16.55;7.30;;;;;;;18.41;64.48;100201.63;5071861;28;20112;-72
2023/01/06 06:07:31;;;;;;;17.30;7.15;;;;;;;18.42;65.79;100201.56;5071672;28;20104;-72
2023/01/06 06:09:57;;;;;;;14.07;6.47;;;;;;;18.46;64.47;100197.88;5071749;28;20104;-73
2023/01/06 06:12:22;;;;;;;12.98;6.80;;;;;;;18.45;64.36;100201.44;5071710;28;20041;-73
2023/01/06 06:14:47;;;;;;;10.95;5.90;;;;;;;18.45;64.33;100196.16;5071800;28;20422;-72
2023/01/06 06:17:13;;;;;;;9.90;5.70;;;;;;;18.47;63.90;100199.63;5071271;28;20028;-74
2023/01/06 06:19:38;;;;;;;10.90;5.70;;;;;;;18.46;63.50;100203.16;5071788;28;20025;-72
2023/01/06 06:22:04;;;;;;;9.13;6.13;;;;;;;18.46;63.44;100203.16;5065742;28;20097;-72
2023/01/06 06:24:29;;;;;;;16.05;6.05;;;;;;;18.46;62.80;100197.03;5065459;28;20101;-72
2023/01/06 06:26:54;;;;;;;9.60;5.20;;;;;;;18.47;62.65;100202.25;5069150;28;20032;-72
2023/01/06 06:29:20;;;;;;;10.40;5.50;;;;;;;18.46;62.72;100197.03;5062725;28;20035;-72
2023/01/06 06:31:45;;;;;;;10.90;5.57;;;;;;;18.46;62.16;100199.69;5067758;28;20024;-73
2023/01/06 06:34:12;;;;;;;9.60;5.65;;;;;;;18.45;62.34;100206.72;5072221;28;20473;-72
2023/01/06 06:36:38;;;;;;;11.00;5.88;;;;;;;18.46;62.25;100191.75;5072240;28;20046;-73
2023/01/06 06:39:03;;;;;;;10.15;5.07;;;;;;;18.46;61.96;100197.88;5068937;28;20024;-75
2023/01/06 06:41:29;;;;;;;10.27;6.18;;;;;;;18.44;62.22;100194.44;5067677;28;20473;-74
2023/01/06 06:43:55;;;;;;;9.77;5.28;;;;;;;18.45;61.90;100201.44;5074369;28;20119;-74
2023/01/06 06:46:21;;;;;;;7.78;5.38;;;;;;;18.45;61.73;100197.97;5071920;28;20078;-73
2023/01/06 06:48:48;;;;;;;10.00;5.57;;;;;;;18.42;61.90;100196.28;5067153;28;20024;-75
2023/01/06 06:51:16;;;;;;;10.20;5.43;;;;;;;18.42;61.70;100198.94;5062962;28;20115;-73
2023/01/06 06:53:42;;;;;;;10.80;5.45;;;;;;;18.44;61.66;100204.16;5070117;28;20096;-73
2023/01/06 06:56:09;;;;;;;9.75;5.15;;;;;;;18.43;61.83;100205.94;5070556;28;20078;-72
2023/01/06 06:58:35;;;;;;;8.25;5.20;;;;;;;18.40;61.59;100203.41;5074932;28;20469;-73
2023/01/06 07:01:09;;;;;;;10.27;6.13;;;;;;;18.41;61.61;100213.06;5074485;28;20032;-73
2023/01/06 07:03:35;;;;;;;11.07;5.22;;;;;;;18.40;61.48;100211.31;5073537;28;20028;-72
2023/01/06 07:06:02;;;;;;;10.48;5.75;;;;;;;18.41;61.29;100215.72;5074703;28;20025;-72
2023/01/06 07:08:28;;;;;;;11.75;5.90;;;;;;;18.40;61.64;100218.41;5074446;28;20490;-73
2023/01/06 07:10:54;;;;;;;9.45;5.15;;;;;;;18.38;61.44;100215.81;5074736;28;20021;-72
2023/01/06 07:13:19;;;;;;;10.00;5.55;;;;;;;18.36;61.26;100217.66;5074609;28;20390;-72
2023/01/06 07:15:44;;;;;;;8.70;5.40;;;;;;;18.32;61.40;100213.41;5074298;28;20055;-72
2023/01/06 07:18:10;;;;;;;9.15;5.60;;;;;;;18.33;61.28;100223.06;5074289;28;20387;-73
2023/01/06 07:20:37;;;;;;;10.20;5.32;;;;;;;18.32;61.30;100222.22;5074297;28;20069;-67
2023/01/06 07:23:03;;;;;;;9.77;5.45;;;;;;;18.31;61.14;100224.91;5074316;28;20025;-64
2023/01/06 07:25:28;;;;;;;8.73;5.38;;;;;;;18.30;61.40;100217.91;5074339;28;20056;-67
2023/01/06 07:27:55;;;;;;;10.73;5.70;;;;;;;18.29;61.38;100222.31;5074296;28;20028;-65
2023/01/06 07:30:22;;;;;;;9.65;5.40;;;;;;;18.28;61.01;100220.59;5073453;28;20035;-67
2023/01/06 07:32:48;;;;;;;9.23;5.50;;;;;;;18.27;61.00;100223.28;5074194;28;20047;-67
2023/01/06 07:35:13;;;;;;;11.48;5.40;;;;;;;18.26;61.10;100227.72;5074085;28;20020;-66
2023/01/06 07:37:38;;;;;;;9.52;5.03;;;;;;;18.24;60.98;100229.53;5074310;28;20020;-67
2023/01/06 07:40:04;;;;;;;10.82;5.40;;;;;;;18.25;60.98;100234.78;5074030;28;20051;-67
2023/01/06 07:42:30;;;;;;;7.65;5.07;;;;;;;18.23;61.12;100233.97;5073997;28;20028;-67
2023/01/06 07:44:55;;;;;;;9.75;5.15;;;;;;;18.22;60.82;100237.53;5072381;28;20020;-67
2023/01/06 07:47:20;;;;;;;8.02;4.65;;;;;;;18.22;60.85;100232.22;5072721;28;20027;-67
2023/01/06 07:49:46;;;;;;;9.82;5.30;;;;;;;18.21;60.99;100230.50;5073865;28;20478;-66
2023/01/06 07:52:11;;;;;;;8.88;5.00;;;;;;;18.22;60.68;100229.59;5073863;28;20025;-67
2023/01/06 07:54:37;;;;;;;8.77;5.22;;;;;;;18.20;60.56;100231.44;5073746;28;20039;-67
2023/01/06 07:57:02;;;;;;;7.93;5.35;;;;;;;18.16;60.86;100232.47;5073603;28;20383;-70
2023/01/06 07:59:28;;;;;;;9.07;5.35;;;;;;;18.13;60.57;100235.22;5073405;28;20125;-67
2023/01/06 08:01:53;;;;;;;9.25;5.00;;;;;;;18.13;60.52;100232.59;5073422;28;20462;-69
2023/01/06 08:04:18;;;;;;;7.57;5.00;;;;;;;18.11;60.90;100239.69;5073534;28;20054;-69
2023/01/06 08:06:44;;;;;;;6.40;4.35;;;;;;;18.12;60.76;100236.16;5073471;28;20036;-69
2023/01/06 08:09:09;;;;;;;8.93;5.45;;;;;;;18.11;60.82;100250.25;5073214;28;20102;-67
2023/01/06 08:11:35;;;;;;;7.50;4.97;;;;;;;18.11;60.56;100239.69;5073621;28;20042;-69
2023/01/06 08:14:00;;;;;;;9.07;5.20;;;;;;;18.09;60.65;100252.97;5073264;28;20023;-69
2023/01/06 08:16:25;;;;;;;7.35;4.97;;;;;;;18.06;60.52;100246.94;5073236;28;20459;-69
2023/01/06 08:18:52;;;;;;;6.35;4.50;;;;;;;18.06;60.40;100246.94;5073347;28;20122;-69
2023/01/06 08:21:17;;;;;;;7.55;4.53;;;;;;;18.04;60.34;100252.25;5073214;28;20042;-69
2023/01/06 08:23:43;;;;;;;9.05;4.93;;;;;;;18.01;60.51;100254.97;5071852;28;20040;-69
2023/01/06 08:26:12;;;;;;;7.93;5.00;;;;;;;18.02;60.46;100253.22;5073175;28;20036;-70
2023/01/06 08:28:38;;;;;;;7.57;4.25;;;;;;;17.98;60.63;100255.09;5072747;28;20044;-69
2023/01/06 08:31:08;;;;;;;6.82;4.45;;;;;;;18.01;60.70;100254.13;5073019;28;20093;-69
2023/01/06 08:33:33;;;;;;;6.90;4.35;;;;;;;18.02;60.53;100255.84;5072908;28;20470;-69
2023/01/06 08:36:00;;;;;;;7.40;4.70;;;;;;;18.01;60.68;100248.84;5072955;28;20029;-69
2023/01/06 08:38:26;;;;;;;7.22;4.70;;;;;;;18.01;60.46;100259.41;5072923;28;20025;-69
2023/01/06 08:40:52;;;;;;;6.68;4.68;;;;;;;18.03;60.47;100263.72;5072889;28;20024;-69
2023/01/06 08:43:18;;;;;;;6.47;4.50;;;;;;;18.01;60.30;100259.41;5072368;28;20029;-68
2023/01/06 08:45:44;;;;;;;7.53;4.15;;;;;;;18.00;60.17;100268.25;5072753;28;20170;-67
2023/01/06 08:48:09;;;;;;;6.80;4.10;;;;;;;17.98;60.45;100266.50;5072711;28;20463;-68
2023/01/06 08:50:37;;;;;;;8.18;4.60;;;;;;;17.98;60.13;100261.22;5072836;28;20025;-69
2023/01/06 08:53:03;;;;;;;6.40;4.47;;;;;;;17.97;60.23;100264.78;5072687;28;20474;-69
2023/01/06 08:55:28;;;;;;;7.40;4.15;;;;;;;17.96;60.40;100271.00;5071032;28;20036;-69
2023/01/06 08:57:53;;;;;;;8.50;4.80;;;;;;;17.97;60.10;100275.34;5072123;28;20502;-69
2023/01/06 09:00:19;;;;;;;7.43;4.60;;;;;;;17.94;60.46;100275.47;5072564;28;20036;-69
2023/01/06 09:02:44;;;;;;;8.57;4.47;;;;;;;17.96;59.98;100276.28;5072303;28;20020;-69
2023/01/06 09:05:10;;;;;;;8.05;4.60;;;;;;;17.95;59.85;100282.47;5072401;28;20485;-70
2023/01/06 09:07:35;;;;;;;7.10;4.57;;;;;;;17.95;60.27;100282.47;5072386;28;20029;-69
2023/01/06 09:10:00;;;;;;;6.43;4.18;;;;;;;17.92;60.06;100279.94;5072346;28;20025;-68
2023/01/06 09:12:26;;;;;;;7.50;4.88;;;;;;;17.91;59.91;100287.94;5072103;28;20073;-68
2023/01/06 09:14:51;;;;;;;7.90;4.55;;;;;;;17.90;60.06;100289.69;5072068;28;20501;-69
2023/01/06 09:17:17;;;;;;;8.55;4.68;;;;;;;17.90;59.89;100294.97;5071019;28;20373;-69
2023/01/06 09:19:42;;;;;;;8.48;4.90;;;;;;;17.88;59.94;100290.66;5072195;28;20486;-70
2023/01/06 09:22:07;;;;;;;7.30;4.40;;;;;;;17.89;60.12;100293.25;5072149;28;20037;-69
2023/01/06 09:24:33;;;;;;;7.32;4.28;;;;;;;17.88;59.79;100295.94;5071587;28;20032;-69
2023/01/06 09:26:58;;;;;;;7.07;4.47;;;;;;;17.87;59.88;100295.06;5072009;28;20509;-68
2023/01/06 09:29:24;;;;;;;8.00;4.30;;;;;;;17.87;59.92;100300.34;5071616;28;20032;-69
2023/01/06 09:31:49;;;;;;;7.38;4.55;;;;;;;17.86;60.09;100298.63;5072178;28;20052;-68
2023/01/06 09:34:15;;;;;;;7.93;4.22;;;;;;;17.83;60.06;100294.31;5072019;28;20016;-68
2023/01/06 09:36:40;;;;;;;7.57;4.75;;;;;;;17.83;60.22;100304.03;5072138;28;20076;-69
2023/01/06 09:39:05;;;;;;;8.63;4.40;;;;;;;17.83;59.91;100317.22;5072163;28;20029;-69
2023/01/06 09:41:44;;;;;;;6.72;4.22;;;;;;;17.82;59.77;100308.44;5071817;28;20032;-69
2023/01/06 09:44:29;;;;;;;7.45;4.47;;;;;;;17.84;59.99;100303.13;5071844;28;20039;-68
2023/01/06 09:46:57;;;;;;;7.20;4.28;;;;;;;17.82;59.80;100307.59;5071943;28;20021;-69
2023/01/06 09:49:45;;;;;;;7.63;4.70;;;;;;;17.84;59.98;100305.75;5070682;28;20090;-69
2023/01/06 09:52:24;;;;;;;5.72;4.30;;;;;;;17.84;59.80;100296.03;5072057;28;20033;-68
2023/01/06 09:54:56;;;;;;;5.97;3.90;;;;;;;17.81;59.78;100305.84;5071518;28;20028;-67
2023/01/06 09:57:35;;;;;;;7.65;4.00;;;;;;;17.78;59.92;100311.25;5071822;28;20214;-68
2023/01/06 10:00:06;;;;;;;8.15;4.10;;;;;;;17.79;59.82;100307.69;5071873;28;20029;-70
2023/01/06 10:02:39;;;;;;;6.05;3.70;;;;;;;17.78;59.71;100311.25;5071765;28;20028;-69
2023/01/06 10:05:19;;;;;;;8.57;4.57;;;;;;;17.78;59.90;100305.97;5051712;28;20021;-69
2023/01/06 10:07:57;;;;;;;6.32;4.10;;;;;;;17.77;60.07;100305.09;5053388;28;20047;-68
2023/01/06 10:10:23;;;;;;;6.85;4.57;;;;;;;17.75;59.70;100301.66;5055535;28;20075;-68
2023/01/06 10:13:02;;;;;;;6.38;4.20;;;;;;;17.75;60.05;100303.41;5056862;28;20037;-70
2023/01/06 10:15:50;;;;;;;6.57;4.45;;;;;;;17.74;59.81;100304.34;5075677;28;20098;-68
2023/01/06 10:18:39;;;;;;;6.32;4.15;;;;;;;17.75;60.09;100303.41;5075748;28;20032;-69
2023/01/06 10:21:07;;;;;;;6.93;4.30;;;;;;;17.72;59.76;100296.47;5075554;28;20025;-69
2023/01/06 10:23:45;;;;;;;7.65;4.38;;;;;;;17.75;59.79;100300.78;5075094;28;20035;-69
2023/01/06 10:26:10;;;;;;;6.72;4.10;;;;;;;17.74;59.86;100291.13;5075481;28;20055;-66
2023/01/06 10:28:41;;;;;;;7.45;4.15;;;;;;;17.71;60.04;100294.75;5075542;28;20478;-65
2023/01/06 10:31:14;;;;;;;5.70;3.45;;;;;;;17.71;59.89;100295.63;5075441;28;20027;-67
2023/01/06 10:33:49;;;;;;;6.65;4.45;;;;;;;17.72;60.03;100285.91;5075297;28;20025;-67
2023/01/06 10:36:16;;;;;;;7.43;4.18;;;;;;;17.73;59.92;100277.09;5075552;28;20475;-67
2023/01/06 10:38:45;;;;;;;6.43;4.07;;;;;;;17.75;59.90;100279.66;5074755;28;20039;-68
2023/01/06 10:41:42;;;;;;;6.07;3.60;;;;;;;17.73;59.95;100273.59;5075284;28;20082;-67
2023/01/06 10:44:11;;;;;;;7.07;3.97;;;;;;;17.74;59.57;100272.66;5075060;28;20028;-68
2023/01/06 10:46:37;;;;;;;6.78;4.10;;;;;;;17.70;59.69;100272.78;5074933;28;20028;-68
2023/01/06 10:49:04;;;;;;;7.00;4.10;;;;;;;17.71;59.95;100274.50;5075160;28;20028;-67
2023/01/06 10:51:39;;;;;;;6.75;4.15;;;;;;;17.71;59.83;100268.34;5075091;28;20467;-67
2023/01/06 10:54:12;;;;;;;5.70;3.83;;;;;;;17.68;59.55;100255.28;5074445;28;20438;-67
2023/01/06 10:56:44;;;;;;;6.20;3.90;;;;;;;17.67;59.53;100262.31;5074915;28;20035;-68
2023/01/06 10:59:11;;;;;;;6.93;4.30;;;;;;;17.70;59.66;100262.22;5074787;28;20505;-66
2023/01/06 11:01:52;;;;;;;5.65;3.78;;;;;;;17.69;59.70;100257.00;5074839;28;20103;-67
2023/01/06 11:04:18;;;;;;;7.55;4.25;;;;;;;17.69;59.69;100251.72;5074669;28;20040;-67
2023/01/06 11:06:47;;;;;;;6.60;3.92;;;;;;;17.69;59.66;100249.91;5074406;28;20105;-67
2023/01/06 11:09:32;;;;;;;6.30;4.10;;;;;;;17.71;59.52;100248.09;5074429;28;20060;-67
2023/01/06 11:12:01;;;;;;;6.47;4.35;;;;;;;17.69;59.79;100249.91;5074654;28;20032;-65
2023/01/06 11:14:30;;;;;;;5.65;3.53;;;;;;;17.67;59.54;100241.19;5074318;28;20115;-66
2023/01/06 11:17:02;;;;;;;5.88;3.80;;;;;;;17.70;59.62;100241.09;5074621;28;20025;-67
2023/01/06 11:19:33;;;;;;;6.28;3.90;;;;;;;17.68;59.72;100239.44;5074408;28;20494;-66
2023/01/06 11:21:58;;;;;;;6.43;3.55;;;;;;;17.67;59.48;100243.00;5074176;28;20031;-66
2023/01/06 11:24:25;;;;;;;6.90;4.03;;;;;;;17.66;59.64;100233.31;5074289;28;20017;-66
2023/01/06 11:26:53;;;;;;;6.45;4.38;;;;;;;17.67;59.42;100233.28;5074442;28;20394;-66
2023/01/06 11:29:33;;;;;;;6.30;3.75;;;;;;;17.66;59.63;100233.31;5074256;28;20443;-67
2023/01/06 11:32:03;;;;;;;5.95;4.05;;;;;;;17.65;59.70;100219.28;5073438;28;20055;-66